sensor_id;sensor_type;location;lat;lon;timestamp;P1;durP1;ratioP1;P2;durP2;ratioP2
24159;SDS011;62385;41.594;23.808;2022-08-03T00:00:00;2.42;;;1.67;;
24159;SDS011;62385;41.594;23.808;2022-08-03T00:02:26;1.73;;;1.63;;
24159;SDS011;62385;41.594;23.808;2022-08-03T00:04:52;2.63;;;1.40;;
24159;SDS011;62385;41.594;23.808;2022-08-03T00:07:17;1.85;;;1.30;;
24159;SDS011;62385;41.594;23.808;2022-08-03T00:09:43;1.95;;;1.50;;
24159;SDS011;62385;41.594;23.808;2022-08-03T00:12:08;2.53;;;1.92;;
24159;SDS011;62385;41.594;23.808;2022-08-03T00:14:35;2.75;;;1.40;;
24159;SDS011;62385;41.594;23.808;2022-08-03T00:17:00;4.20;;;1.75;;
24159;SDS011;62385;41.594;23.808;2022-08-03T00:19:26;3.45;;;1.60;;
24159;SDS011;62385;41.594;23.808;2022-08-03T00:21:52;2.17;;;1.42;;
24159;SDS011;62385;41.594;23.808;2022-08-03T00:24:18;1.85;;;1.70;;
24159;SDS011;62385;41.594;23.808;2022-08-03T00:26:44;2.35;;;1.27;;
24159;SDS011;62385;41.594;23.808;2022-08-03T00:29:09;3.05;;;1.58;;
24159;SDS011;62385;41.594;23.808;2022-08-03T00:31:35;3.45;;;1.88;;
24159;SDS011;62385;41.594;23.808;2022-08-03T00:34:01;1.50;;;1.40;;
24159;SDS011;62385;41.594;23.808;2022-08-03T00:36:26;1.80;;;1.70;;
24159;SDS011;62385;41.594;23.808;2022-08-03T00:38:52;1.70;;;1.60;;
24159;SDS011;62385;41.594;23.808;2022-08-03T00:41:18;2.00;;;1.60;;
24159;SDS011;62385;41.594;23.808;2022-08-03T00:43:43;2.80;;;1.65;;
24159;SDS011;62385;41.594;23.808;2022-08-03T00:46:09;2.42;;;1.65;;
24159;SDS011;62385;41.594;23.808;2022-08-03T00:48:35;1.90;;;1.75;;
24159;SDS011;62385;41.594;23.808;2022-08-03T00:51:00;1.73;;;1.63;;
24159;SDS011;62385;41.594;23.808;2022-08-03T00:53:26;2.20;;;1.60;;
24159;SDS011;62385;41.594;23.808;2022-08-03T00:55:52;1.70;;;1.60;;
24159;SDS011;62385;41.594;23.808;2022-08-03T00:58:18;1.92;;;1.77;;
24159;SDS011;62385;41.594;23.808;2022-08-03T01:00:44;2.08;;;1.88;;
24159;SDS011;62385;41.594;23.808;2022-08-03T01:03:10;2.80;;;1.60;;
24159;SDS011;62385;41.594;23.808;2022-08-03T01:06:19;2.47;;;1.60;;
24159;SDS011;62385;41.594;23.808;2022-08-03T01:16:36;2.60;;;2.13;;
24159;SDS011;62385;41.594;23.808;2022-08-03T01:19:37;2.28;;;1.85;;
24159;SDS011;62385;41.594;23.808;2022-08-03T01:30:34;2.10;;;1.80;;
24159;SDS011;62385;41.594;23.808;2022-08-03T01:33:06;1.88;;;1.77;;
24159;SDS011;62385;41.594;23.808;2022-08-03T01:35:40;2.25;;;1.80;;
24159;SDS011;62385;41.594;23.808;2022-08-03T01:38:21;2.00;;;1.80;;
24159;SDS011;62385;41.594;23.808;2022-08-03T01:40:52;1.92;;;1.70;;
24159;SDS011;62385;41.594;23.808;2022-08-03T01:43:20;3.95;;;1.65;;
24159;SDS011;62385;41.594;23.808;2022-08-03T01:45:52;2.10;;;1.60;;
24159;SDS011;62385;41.594;23.808;2022-08-03T01:48:19;2.20;;;2.00;;
24159;SDS011;62385;41.594;23.808;2022-08-03T01:50:46;2.58;;;2.38;;
24159;SDS011;62385;41.594;23.808;2022-08-03T01:53:14;3.03;;;2.60;;
24159;SDS011;62385;41.594;23.808;2022-08-03T01:55:42;3.35;;;2.70;;
24159;SDS011;62385;41.594;23.808;2022-08-03T01:58:14;2.92;;;2.70;;
24159;SDS011;62385;41.594;23.808;2022-08-03T02:00:42;3.45;;;2.30;;
24159;SDS011;62385;41.594;23.808;2022-08-03T02:03:08;3.30;;;2.65;;
24159;SDS011;62385;41.594;23.808;2022-08-03T02:05:38;4.18;;;2.63;;
24159;SDS011;62385;41.594;23.808;2022-08-03T02:08:06;3.65;;;2.90;;
24159;SDS011;62385;41.594;23.808;2022-08-03T02:10:35;2.92;;;2.63;;
24159;SDS011;62385;41.594;23.808;2022-08-03T02:13:03;3.33;;;2.60;;
24159;SDS011;62385;41.594;23.808;2022-08-03T02:15:31;2.30;;;2.10;;
24159;SDS011;62385;41.594;23.808;2022-08-03T02:18:00;3.63;;;2.25;;
24159;SDS011;62385;41.594;23.808;2022-08-03T02:20:27;2.53;;;2.30;;
24159;SDS011;62385;41.594;23.808;2022-08-03T02:22:57;2.58;;;1.90;;
24159;SDS011;62385;41.594;23.808;2022-08-03T02:25:23;3.70;;;2.90;;
24159;SDS011;62385;41.594;23.808;2022-08-03T02:28:10;3.00;;;2.10;;
24159;SDS011;62385;41.594;23.808;2022-08-03T02:30:41;2.30;;;2.10;;
24159;SDS011;62385;41.594;23.808;2022-08-03T02:33:11;3.85;;;2.30;;
24159;SDS011;62385;41.594;23.808;2022-08-03T02:35:42;2.92;;;2.30;;
24159;SDS011;62385;41.594;23.808;2022-08-03T02:38:09;4.30;;;2.17;;
24159;SDS011;62385;41.594;23.808;2022-08-03T02:40:36;6.00;;;2.05;;
24159;SDS011;62385;41.594;23.808;2022-08-03T02:43:25;2.20;;;2.00;;
24159;SDS011;62385;41.594;23.808;2022-08-03T02:45:54;4.80;;;2.10;;
24159;SDS011;62385;41.594;23.808;2022-08-03T02:48:24;2.97;;;2.35;;
24159;SDS011;62385;41.594;23.808;2022-08-03T02:50:53;2.30;;;2.10;;
24159;SDS011;62385;41.594;23.808;2022-08-03T02:53:21;2.63;;;2.17;;
24159;SDS011;62385;41.594;23.808;2022-08-03T02:55:48;2.05;;;1.90;;
24159;SDS011;62385;41.594;23.808;2022-08-03T02:58:16;2.67;;;2.10;;
24159;SDS011;62385;41.594;23.808;2022-08-03T03:01:03;5.07;;;2.45;;
24159;SDS011;62385;41.594;23.808;2022-08-03T03:03:30;4.50;;;2.15;;
24159;SDS011;62385;41.594;23.808;2022-08-03T03:05:56;3.25;;;2.15;;
24159;SDS011;62385;41.594;23.808;2022-08-03T03:08:22;3.35;;;2.22;;
24159;SDS011;62385;41.594;23.808;2022-08-03T03:10:49;2.47;;;2.10;;
24159;SDS011;62385;41.594;23.808;2022-08-03T03:13:15;2.60;;;2.40;;
24159;SDS011;62385;41.594;23.808;2022-08-03T03:15:42;3.67;;;2.28;;
24159;SDS011;62385;41.594;23.808;2022-08-03T03:18:10;2.90;;;2.50;;
24159;SDS011;62385;41.594;23.808;2022-08-03T03:20:37;2.45;;;2.00;;
24159;SDS011;62385;41.594;23.808;2022-08-03T03:23:04;2.08;;;1.92;;
24159;SDS011;62385;41.594;23.808;2022-08-03T03:25:31;2.25;;;1.98;;
24159;SDS011;62385;41.594;23.808;2022-08-03T03:28:01;1.88;;;1.77;;
24159;SDS011;62385;41.594;23.808;2022-08-03T03:30:28;2.40;;;2.20;;
24159;SDS011;62385;41.594;23.808;2022-08-03T03:32:54;2.42;;;2.17;;
24159;SDS011;62385;41.594;23.808;2022-08-03T03:35:41;2.38;;;2.17;;
24159;SDS011;62385;41.594;23.808;2022-08-03T03:38:08;4.45;;;2.40;;
24159;SDS011;62385;41.594;23.808;2022-08-03T03:40:34;4.82;;;2.30;;
24159;SDS011;62385;41.594;23.808;2022-08-03T03:43:01;2.53;;;2.33;;
24159;SDS011;62385;41.594;23.808;2022-08-03T03:45:27;2.95;;;2.65;;
24159;SDS011;62385;41.594;23.808;2022-08-03T03:47:56;4.72;;;3.47;;
24159;SDS011;62385;41.594;23.808;2022-08-03T03:50:24;3.65;;;3.35;;
24159;SDS011;62385;41.594;23.808;2022-08-03T03:52:51;4.95;;;3.33;;
24159;SDS011;62385;41.594;23.808;2022-08-03T03:55:17;4.18;;;3.78;;
24159;SDS011;62385;41.594;23.808;2022-08-03T03:57:43;5.50;;;3.85;;
24159;SDS011;62385;41.594;23.808;2022-08-03T04:00:09;6.38;;;3.53;;
24159;SDS011;62385;41.594;23.808;2022-08-03T04:02:37;5.82;;;4.22;;
24159;SDS011;62385;41.594;23.808;2022-08-03T04:05:03;3.63;;;3.33;;
24159;SDS011;62385;41.594;23.808;2022-08-03T04:07:52;3.33;;;2.78;;
24159;SDS011;62385;41.594;23.808;2022-08-03T04:10:40;4.30;;;2.53;;
24159;SDS011;62385;41.594;23.808;2022-08-03T04:13:30;2.58;;;2.20;;
24159;SDS011;62385;41.594;23.808;2022-08-03T04:16:05;6.38;;;2.80;;
24159;SDS011;62385;41.594;23.808;2022-08-03T04:18:34;3.72;;;3.30;;
24159;SDS011;62385;41.594;23.808;2022-08-03T04:21:04;7.75;;;3.58;;
24159;SDS011;62385;41.594;23.808;2022-08-03T04:23:34;3.53;;;3.22;;
24159;SDS011;62385;41.594;23.808;2022-08-03T04:26:04;3.38;;;3.00;;
24159;SDS011;62385;41.594;23.808;2022-08-03T04:28:35;3.05;;;2.70;;
24159;SDS011;62385;41.594;23.808;2022-08-03T04:31:03;3.17;;;2.70;;
24159;SDS011;62385;41.594;23.808;2022-08-03T04:33:32;3.13;;;2.85;;
24159;SDS011;62385;41.594;23.808;2022-08-03T04:36:00;2.85;;;2.50;;
24159;SDS011;62385;41.594;23.808;2022-08-03T04:38:28;2.80;;;2.60;;
24159;SDS011;62385;41.594;23.808;2022-08-03T04:40:57;2.72;;;2.45;;
24159;SDS011;62385;41.594;23.808;2022-08-03T04:43:23;5.68;;;2.50;;
24159;SDS011;62385;41.594;23.808;2022-08-03T04:45:50;3.50;;;2.75;;
24159;SDS011;62385;41.594;23.808;2022-08-03T04:48:18;2.60;;;2.40;;
24159;SDS011;62385;41.594;23.808;2022-08-03T04:50:44;3.58;;;2.70;;
24159;SDS011;62385;41.594;23.808;2022-08-03T04:53:12;3.35;;;2.60;;
24159;SDS011;62385;41.594;23.808;2022-08-03T04:55:38;4.00;;;2.33;;
24159;SDS011;62385;41.594;23.808;2022-08-03T04:58:03;4.25;;;2.72;;
24159;SDS011;62385;41.594;23.808;2022-08-03T05:00:30;2.88;;;2.47;;
24159;SDS011;62385;41.594;23.808;2022-08-03T05:02:56;6.22;;;2.42;;
24159;SDS011;62385;41.594;23.808;2022-08-03T05:05:21;4.40;;;3.83;;
24159;SDS011;62385;41.594;23.808;2022-08-03T05:07:48;4.85;;;4.45;;
24159;SDS011;62385;41.594;23.808;2022-08-03T05:10:14;8.43;;;4.57;;
24159;SDS011;62385;41.594;23.808;2022-08-03T05:12:41;7.95;;;4.45;;
24159;SDS011;62385;41.594;23.808;2022-08-03T05:15:08;5.63;;;3.90;;
24159;SDS011;62385;41.594;23.808;2022-08-03T05:17:34;5.40;;;3.63;;
24159;SDS011;62385;41.594;23.808;2022-08-03T05:20:01;5.97;;;3.90;;
24159;SDS011;62385;41.594;23.808;2022-08-03T05:22:30;3.88;;;3.20;;
24159;SDS011;62385;41.594;23.808;2022-08-03T05:24:57;17.63;;;5.45;;
24159;SDS011;62385;41.594;23.808;2022-08-03T05:27:22;39.90;;;24.60;;
24159;SDS011;62385;41.594;23.808;2022-08-03T05:29:48;31.73;;;20.70;;
24159;SDS011;62385;41.594;23.808;2022-08-03T05:32:15;86.10;;;45.83;;
24159;SDS011;62385;41.594;23.808;2022-08-03T05:34:41;85.28;;;26.58;;
24159;SDS011;62385;41.594;23.808;2022-08-03T05:37:08;6.75;;;4.97;;
24159;SDS011;62385;41.594;23.808;2022-08-03T05:39:34;9.23;;;4.53;;
24159;SDS011;62385;41.594;23.808;2022-08-03T05:42:00;5.80;;;4.00;;
24159;SDS011;62385;41.594;23.808;2022-08-03T05:44:26;10.27;;;4.40;;
24159;SDS011;62385;41.594;23.808;2022-08-03T05:46:53;5.63;;;4.57;;
24159;SDS011;62385;41.594;23.808;2022-08-03T05:49:19;13.60;;;5.93;;
24159;SDS011;62385;41.594;23.808;2022-08-03T05:51:45;6.97;;;5.10;;
24159;SDS011;62385;41.594;23.808;2022-08-03T05:54:10;4.95;;;4.47;;
24159;SDS011;62385;41.594;23.808;2022-08-03T05:56:36;6.05;;;3.63;;
24159;SDS011;62385;41.594;23.808;2022-08-03T05:59:02;5.80;;;3.10;;
24159;SDS011;62385;41.594;23.808;2022-08-03T06:01:28;4.97;;;3.45;;
24159;SDS011;62385;41.594;23.808;2022-08-03T06:03:56;6.35;;;3.65;;
24159;SDS011;62385;41.594;23.808;2022-08-03T06:06:22;3.45;;;3.15;;
24159;SDS011;62385;41.594;23.808;2022-08-03T06:08:48;4.47;;;2.80;;
24159;SDS011;62385;41.594;23.808;2022-08-03T06:11:14;3.97;;;3.00;;
24159;SDS011;62385;41.594;23.808;2022-08-03T06:13:40;6.72;;;2.63;;
24159;SDS011;62385;41.594;23.808;2022-08-03T06:16:08;4.30;;;2.80;;
24159;SDS011;62385;41.594;23.808;2022-08-03T06:18:34;4.22;;;2.90;;
24159;SDS011;62385;41.594;23.808;2022-08-03T06:21:00;3.05;;;2.75;;
24159;SDS011;62385;41.594;23.808;2022-08-03T06:23:26;3.95;;;2.50;;
24159;SDS011;62385;41.594;23.808;2022-08-03T06:25:52;2.60;;;2.40;;
24159;SDS011;62385;41.594;23.808;2022-08-03T06:28:17;2.30;;;2.10;;
24159;SDS011;62385;41.594;23.808;2022-08-03T06:31:01;3.13;;;2.50;;
24159;SDS011;62385;41.594;23.808;2022-08-03T06:33:28;2.50;;;2.30;;
24159;SDS011;62385;41.594;23.808;2022-08-03T06:35:53;3.33;;;2.20;;
24159;SDS011;62385;41.594;23.808;2022-08-03T06:38:19;5.45;;;2.63;;
24159;SDS011;62385;41.594;23.808;2022-08-03T06:40:46;2.80;;;2.50;;
24159;SDS011;62385;41.594;23.808;2022-08-03T06:43:11;3.40;;;2.88;;
24159;SDS011;62385;41.594;23.808;2022-08-03T06:45:39;3.85;;;2.67;;
24159;SDS011;62385;41.594;23.808;2022-08-03T06:50:30;2.50;;;2.30;;
24159;SDS011;62385;41.594;23.808;2022-08-03T06:52:58;3.70;;;2.67;;
24159;SDS011;62385;41.594;23.808;2022-08-03T06:55:24;2.88;;;2.40;;
24159;SDS011;62385;41.594;23.808;2022-08-03T06:57:51;2.97;;;2.40;;
24159;SDS011;62385;41.594;23.808;2022-08-03T07:00:17;3.15;;;2.80;;
24159;SDS011;62385;41.594;23.808;2022-08-03T07:02:44;2.50;;;2.30;;
24159;SDS011;62385;41.594;23.808;2022-08-03T07:05:10;2.97;;;2.67;;
24159;SDS011;62385;41.594;23.808;2022-08-03T07:07:36;5.40;;;2.55;;
24159;SDS011;62385;41.594;23.808;2022-08-03T07:10:02;7.10;;;2.10;;
24159;SDS011;62385;41.594;23.808;2022-08-03T07:12:30;6.10;;;2.58;;
24159;SDS011;62385;41.594;23.808;2022-08-03T07:14:57;3.90;;;2.42;;
24159;SDS011;62385;41.594;23.808;2022-08-03T07:17:23;4.10;;;2.65;;
24159;SDS011;62385;41.594;23.808;2022-08-03T07:19:49;3.97;;;2.60;;
24159;SDS011;62385;41.594;23.808;2022-08-03T07:22:15;3.33;;;2.55;;
24159;SDS011;62385;41.594;23.808;2022-08-03T07:24:41;4.45;;;3.13;;
24159;SDS011;62385;41.594;23.808;2022-08-03T07:27:07;5.57;;;3.22;;
24159;SDS011;62385;41.594;23.808;2022-08-03T07:29:33;3.28;;;2.90;;
24159;SDS011;62385;41.594;23.808;2022-08-03T07:31:59;2.80;;;2.60;;
24159;SDS011;62385;41.594;23.808;2022-08-03T07:34:25;4.13;;;2.83;;
24159;SDS011;62385;41.594;23.808;2022-08-03T07:36:52;3.50;;;2.80;;
24159;SDS011;62385;41.594;23.808;2022-08-03T07:39:18;4.65;;;2.67;;
24159;SDS011;62385;41.594;23.808;2022-08-03T07:41:44;2.95;;;2.63;;
24159;SDS011;62385;41.594;23.808;2022-08-03T07:44:10;4.03;;;2.75;;
24159;SDS011;62385;41.594;23.808;2022-08-03T07:46:35;3.70;;;3.22;;
24159;SDS011;62385;41.594;23.808;2022-08-03T07:49:01;3.30;;;2.70;;
24159;SDS011;62385;41.594;23.808;2022-08-03T07:51:27;4.43;;;2.47;;
24159;SDS011;62385;41.594;23.808;2022-08-03T07:53:53;4.75;;;2.85;;
24159;SDS011;62385;41.594;23.808;2022-08-03T07:56:22;3.10;;;2.80;;
24159;SDS011;62385;41.594;23.808;2022-08-03T07:58:49;2.75;;;2.55;;
24159;SDS011;62385;41.594;23.808;2022-08-03T08:01:15;6.32;;;2.78;;
24159;SDS011;62385;41.594;23.808;2022-08-03T08:03:43;3.47;;;3.15;;
24159;SDS011;62385;41.594;23.808;2022-08-03T08:06:10;14.50;;;3.55;;
24159;SDS011;62385;41.594;23.808;2022-08-03T08:08:36;5.82;;;3.40;;
24159;SDS011;62385;41.594;23.808;2022-08-03T08:11:02;3.50;;;3.15;;
24159;SDS011;62385;41.594;23.808;2022-08-03T08:13:28;3.15;;;2.85;;
24159;SDS011;62385;41.594;23.808;2022-08-03T08:16:12;4.95;;;3.55;;
24159;SDS011;62385;41.594;23.808;2022-08-03T08:18:38;3.33;;;2.83;;
24159;SDS011;62385;41.594;23.808;2022-08-03T08:21:03;3.35;;;2.75;;
24159;SDS011;62385;41.594;23.808;2022-08-03T08:23:47;5.53;;;2.60;;
24159;SDS011;62385;41.594;23.808;2022-08-03T08:26:13;8.35;;;3.05;;
24159;SDS011;62385;41.594;23.808;2022-08-03T08:28:38;3.97;;;2.70;;
24159;SDS011;62385;41.594;23.808;2022-08-03T08:31:04;2.70;;;2.50;;
24159;SDS011;62385;41.594;23.808;2022-08-03T08:33:29;3.70;;;2.13;;
24159;SDS011;62385;41.594;23.808;2022-08-03T08:35:55;3.25;;;2.70;;
24159;SDS011;62385;41.594;23.808;2022-08-03T08:38:21;2.88;;;2.30;;
24159;SDS011;62385;41.594;23.808;2022-08-03T08:41:06;3.22;;;2.50;;
24159;SDS011;62385;41.594;23.808;2022-08-03T08:43:34;2.83;;;2.30;;
24159;SDS011;62385;41.594;23.808;2022-08-03T08:45:59;4.22;;;2.10;;
24159;SDS011;62385;41.594;23.808;2022-08-03T08:48:44;2.40;;;2.20;;
24159;SDS011;62385;41.594;23.808;2022-08-03T08:51:12;3.47;;;2.05;;
24159;SDS011;62385;41.594;23.808;2022-08-03T08:53:40;2.10;;;1.90;;
24159;SDS011;62385;41.594;23.808;2022-08-03T08:56:09;2.42;;;2.22;;
24159;SDS011;62385;41.594;23.808;2022-08-03T08:58:40;3.67;;;2.13;;
24159;SDS011;62385;41.594;23.808;2022-08-03T09:01:12;3.40;;;2.05;;
24159;SDS011;62385;41.594;23.808;2022-08-03T09:03:37;5.18;;;4.32;;
24159;SDS011;62385;41.594;23.808;2022-08-03T09:06:06;4.60;;;4.20;;
24159;SDS011;62385;41.594;23.808;2022-08-03T09:08:31;3.63;;;3.33;;
24159;SDS011;62385;41.594;23.808;2022-08-03T09:10:58;2.45;;;2.25;;
24159;SDS011;62385;41.594;23.808;2022-08-03T09:13:24;5.05;;;2.40;;
24159;SDS011;62385;41.594;23.808;2022-08-03T09:18:44;2.17;;;1.98;;
24159;SDS011;62385;41.594;23.808;2022-08-03T09:21:22;2.60;;;2.40;;
24159;SDS011;62385;41.594;23.808;2022-08-03T09:23:49;2.90;;;1.70;;
24159;SDS011;62385;41.594;23.808;2022-08-03T09:26:23;1.75;;;1.65;;
24159;SDS011;62385;41.594;23.808;2022-08-03T09:33:56;2.33;;;1.98;;
24159;SDS011;62385;41.594;23.808;2022-08-03T09:39:13;3.05;;;2.20;;
24159;SDS011;62385;41.594;23.808;2022-08-03T09:41:45;3.10;;;1.70;;
24159;SDS011;62385;41.594;23.808;2022-08-03T09:44:34;1.85;;;1.70;;
24159;SDS011;62385;41.594;23.808;2022-08-03T09:47:02;2.80;;;1.80;;
24159;SDS011;62385;41.594;23.808;2022-08-03T09:49:28;2.55;;;1.40;;
24159;SDS011;62385;41.594;23.808;2022-08-03T09:52:18;1.80;;;1.65;;
24159;SDS011;62385;41.594;23.808;2022-08-03T09:54:50;2.85;;;1.23;;
24159;SDS011;62385;41.594;23.808;2022-08-03T09:57:20;5.78;;;2.70;;
24159;SDS011;62385;41.594;23.808;2022-08-03T09:59:48;3.35;;;1.25;;
24159;SDS011;62385;41.594;23.808;2022-08-03T10:02:22;6.78;;;2.17;;
24159;SDS011;62385;41.594;23.808;2022-08-03T10:05:08;3.33;;;1.90;;
24159;SDS011;62385;41.594;23.808;2022-08-03T10:07:46;4.75;;;1.67;;
24159;SDS011;62385;41.594;23.808;2022-08-03T10:10:13;1.80;;;1.63;;
24159;SDS011;62385;41.594;23.808;2022-08-03T10:12:40;2.20;;;1.50;;
24159;SDS011;62385;41.594;23.808;2022-08-03T10:15:06;1.90;;;1.48;;
24159;SDS011;62385;41.594;23.808;2022-08-03T10:17:32;2.45;;;1.67;;
24159;SDS011;62385;41.594;23.808;2022-08-03T10:19:58;7.22;;;1.88;;
24159;SDS011;62385;41.594;23.808;2022-08-03T10:22:28;2.25;;;1.50;;
24159;SDS011;62385;41.594;23.808;2022-08-03T10:25:01;5.05;;;1.67;;
24159;SDS011;62385;41.594;23.808;2022-08-03T10:27:38;4.97;;;2.13;;
24159;SDS011;62385;41.594;23.808;2022-08-03T10:30:06;1.77;;;1.52;;
24159;SDS011;62385;41.594;23.808;2022-08-03T10:32:41;2.50;;;1.70;;
24159;SDS011;62385;41.594;23.808;2022-08-03T10:35:29;2.78;;;1.48;;
24159;SDS011;62385;41.594;23.808;2022-08-03T10:37:59;3.15;;;1.40;;
24159;SDS011;62385;41.594;23.808;2022-08-03T10:40:29;8.05;;;1.95;;
24159;SDS011;62385;41.594;23.808;2022-08-03T10:43:05;3.17;;;1.40;;
24159;SDS011;62385;41.594;23.808;2022-08-03T10:45:35;3.70;;;1.88;;
24159;SDS011;62385;41.594;23.808;2022-08-03T10:48:05;5.70;;;2.17;;
24159;SDS011;62385;41.594;23.808;2022-08-03T10:50:32;3.80;;;2.30;;
24159;SDS011;62385;41.594;23.808;2022-08-03T10:53:04;5.55;;;2.25;;
24159;SDS011;62385;41.594;23.808;2022-08-03T10:55:35;2.88;;;2.40;;
24159;SDS011;62385;41.594;23.808;2022-08-03T10:59:03;3.65;;;2.20;;
24159;SDS011;62385;41.594;23.808;2022-08-03T11:04:16;2.92;;;2.13;;
24159;SDS011;62385;41.594;23.808;2022-08-03T11:06:44;5.68;;;2.05;;
24159;SDS011;62385;41.594;23.808;2022-08-03T11:11:41;2.58;;;2.13;;
24159;SDS011;62385;41.594;23.808;2022-08-03T11:14:09;2.83;;;2.33;;
24159;SDS011;62385;41.594;23.808;2022-08-03T11:16:36;6.40;;;2.80;;
24159;SDS011;62385;41.594;23.808;2022-08-03T11:19:07;5.50;;;2.80;;
24159;SDS011;62385;41.594;23.808;2022-08-03T11:27:31;3.95;;;2.03;;
24159;SDS011;62385;41.594;23.808;2022-08-03T11:35:10;8.68;;;2.80;;
24159;SDS011;62385;41.594;23.808;2022-08-03T11:46:01;3.10;;;1.55;;
24159;SDS011;62385;41.594;23.808;2022-08-03T11:48:33;3.17;;;2.13;;
24159;SDS011;62385;41.594;23.808;2022-08-03T11:51:01;2.25;;;1.55;;
24159;SDS011;62385;41.594;23.808;2022-08-03T11:53:28;2.10;;;1.70;;
24159;SDS011;62385;41.594;23.808;2022-08-03T11:55:57;1.67;;;1.38;;
24159;SDS011;62385;41.594;23.808;2022-08-03T11:58:24;2.50;;;2.30;;
24159;SDS011;62385;41.594;23.808;2022-08-03T12:00:50;5.32;;;2.90;;
24159;SDS011;62385;41.594;23.808;2022-08-03T12:03:17;2.65;;;2.45;;
24159;SDS011;62385;41.594;23.808;2022-08-03T12:05:50;2.63;;;2.20;;
24159;SDS011;62385;41.594;23.808;2022-08-03T12:10:56;2.00;;;1.27;;
24159;SDS011;62385;41.594;23.808;2022-08-03T12:13:23;1.35;;;1.25;;
24159;SDS011;62385;41.594;23.808;2022-08-03T12:15:50;1.67;;;1.55;;
24159;SDS011;62385;41.594;23.808;2022-08-03T12:18:21;2.55;;;1.50;;
24159;SDS011;62385;41.594;23.808;2022-08-03T12:20:48;2.75;;;1.40;;
24159;SDS011;62385;41.594;23.808;2022-08-03T12:23:15;1.95;;;1.27;;
24159;SDS011;62385;41.594;23.808;2022-08-03T12:25:42;2.67;;;1.40;;
24159;SDS011;62385;41.594;23.808;2022-08-03T12:28:11;1.75;;;1.65;;
24159;SDS011;62385;41.594;23.808;2022-08-03T12:30:47;1.98;;;1.40;;
24159;SDS011;62385;41.594;23.808;2022-08-03T12:33:17;1.70;;;1.60;;
24159;SDS011;62385;41.594;23.808;2022-08-03T12:35:44;1.70;;;1.38;;
24159;SDS011;62385;41.594;23.808;2022-08-03T12:38:12;1.52;;;1.42;;
24159;SDS011;62385;41.594;23.808;2022-08-03T12:40:38;5.40;;;1.67;;
24159;SDS011;62385;41.594;23.808;2022-08-03T12:43:13;4.65;;;1.70;;
24159;SDS011;62385;41.594;23.808;2022-08-03T12:45:39;3.15;;;1.98;;
24159;SDS011;62385;41.594;23.808;2022-08-03T12:48:07;3.92;;;1.70;;
24159;SDS011;62385;41.594;23.808;2022-08-03T12:50:37;1.58;;;1.27;;
24159;SDS011;62385;41.594;23.808;2022-08-03T12:53:04;5.40;;;2.90;;
24159;SDS011;62385;41.594;23.808;2022-08-03T12:55:32;6.10;;;2.65;;
24159;SDS011;62385;41.594;23.808;2022-08-03T12:57:58;7.05;;;4.43;;
24159;SDS011;62385;41.594;23.808;2022-08-03T13:00:25;6.05;;;2.65;;
24159;SDS011;62385;41.594;23.808;2022-08-03T13:03:02;1.90;;;1.70;;
24159;SDS011;62385;41.594;23.808;2022-08-03T13:05:30;1.80;;;1.60;;
24159;SDS011;62385;41.594;23.808;2022-08-03T13:07:56;3.33;;;1.90;;
24159;SDS011;62385;41.594;23.808;2022-08-03T13:10:26;3.92;;;2.20;;
24159;SDS011;62385;41.594;23.808;2022-08-03T13:12:54;2.03;;;1.77;;
24159;SDS011;62385;41.594;23.808;2022-08-03T13:15:22;5.13;;;2.42;;
24159;SDS011;62385;41.594;23.808;2022-08-03T13:17:48;2.60;;;1.98;;
24159;SDS011;62385;41.594;23.808;2022-08-03T13:20:13;2.10;;;1.90;;
24159;SDS011;62385;41.594;23.808;2022-08-03T13:22:40;2.55;;;1.60;;
24159;SDS011;62385;41.594;23.808;2022-08-03T13:25:06;2.47;;;2.05;;
24159;SDS011;62385;41.594;23.808;2022-08-03T13:27:32;2.95;;;1.92;;
24159;SDS011;62385;41.594;23.808;2022-08-03T13:29:58;4.15;;;2.30;;
24159;SDS011;62385;41.594;23.808;2022-08-03T13:32:23;8.40;;;3.40;;
24159;SDS011;62385;41.594;23.808;2022-08-03T13:34:49;5.07;;;2.65;;
24159;SDS011;62385;41.594;23.808;2022-08-03T13:37:15;3.80;;;2.80;;
24159;SDS011;62385;41.594;23.808;2022-08-03T13:39:40;2.78;;;2.58;;
24159;SDS011;62385;41.594;23.808;2022-08-03T13:42:07;4.22;;;2.63;;
24159;SDS011;62385;41.594;23.808;2022-08-03T13:44:32;2.25;;;2.05;;
24159;SDS011;62385;41.594;23.808;2022-08-03T13:46:58;2.60;;;2.40;;
24159;SDS011;62385;41.594;23.808;2022-08-03T13:49:27;3.38;;;2.90;;
24159;SDS011;62385;41.594;23.808;2022-08-03T13:51:54;3.40;;;2.88;;
24159;SDS011;62385;41.594;23.808;2022-08-03T13:54:20;3.30;;;2.80;;
24159;SDS011;62385;41.594;23.808;2022-08-03T13:56:46;3.20;;;2.90;;
24159;SDS011;62385;41.594;23.808;2022-08-03T13:59:20;3.20;;;2.90;;
24159;SDS011;62385;41.594;23.808;2022-08-03T14:01:47;3.45;;;2.60;;
24159;SDS011;62385;41.594;23.808;2022-08-03T14:04:13;3.30;;;3.00;;
24159;SDS011;62385;41.594;23.808;2022-08-03T14:06:39;4.32;;;3.03;;
24159;SDS011;62385;41.594;23.808;2022-08-03T14:09:05;7.10;;;3.70;;
24159;SDS011;62385;41.594;23.808;2022-08-03T14:11:30;3.30;;;3.00;;
24159;SDS011;62385;41.594;23.808;2022-08-03T14:13:58;3.47;;;3.20;;
24159;SDS011;62385;41.594;23.808;2022-08-03T14:16:23;4.10;;;3.70;;
24159;SDS011;62385;41.594;23.808;2022-08-03T14:18:49;4.32;;;3.72;;
24159;SDS011;62385;41.594;23.808;2022-08-03T14:21:15;4.95;;;4.55;;
24159;SDS011;62385;41.594;23.808;2022-08-03T14:23:40;3.92;;;3.63;;
24159;SDS011;62385;41.594;23.808;2022-08-03T14:26:07;3.25;;;3.00;;
24159;SDS011;62385;41.594;23.808;2022-08-03T14:28:33;4.05;;;3.00;;
24159;SDS011;62385;41.594;23.808;2022-08-03T14:31:00;3.70;;;3.40;;
24159;SDS011;62385;41.594;23.808;2022-08-03T14:33:26;5.55;;;3.92;;
24159;SDS011;62385;41.594;23.808;2022-08-03T14:35:55;4.78;;;3.78;;
24159;SDS011;62385;41.594;23.808;2022-08-03T14:38:20;4.35;;;3.95;;
24159;SDS011;62385;41.594;23.808;2022-08-03T14:40:47;5.40;;;3.90;;
24159;SDS011;62385;41.594;23.808;2022-08-03T14:43:13;4.40;;;4.00;;
24159;SDS011;62385;41.594;23.808;2022-08-03T14:45:39;4.93;;;4.43;;
24159;SDS011;62385;41.594;23.808;2022-08-03T14:48:05;5.43;;;4.10;;
24159;SDS011;62385;41.594;23.808;2022-08-03T14:50:31;3.83;;;3.53;;
24159;SDS011;62385;41.594;23.808;2022-08-03T14:52:57;4.10;;;3.67;;
24159;SDS011;62385;41.594;23.808;2022-08-03T14:55:41;4.47;;;4.07;;
24159;SDS011;62385;41.594;23.808;2022-08-03T14:58:08;4.50;;;4.07;;
24159;SDS011;62385;41.594;23.808;2022-08-03T15:00:34;5.07;;;3.10;;
24159;SDS011;62385;41.594;23.808;2022-08-03T15:03:01;3.55;;;3.25;;
24159;SDS011;62385;41.594;23.808;2022-08-03T15:05:28;4.05;;;2.95;;
24159;SDS011;62385;41.594;23.808;2022-08-03T15:07:56;3.13;;;2.83;;
24159;SDS011;62385;41.594;23.808;2022-08-03T15:10:21;3.45;;;3.15;;
24159;SDS011;62385;41.594;23.808;2022-08-03T15:12:47;3.78;;;3.47;;
24159;SDS011;62385;41.594;23.808;2022-08-03T15:15:13;4.10;;;3.50;;
24159;SDS011;62385;41.594;23.808;2022-08-03T15:17:39;4.22;;;3.83;;
24159;SDS011;62385;41.594;23.808;2022-08-03T15:20:04;3.55;;;3.25;;
24159;SDS011;62385;41.594;23.808;2022-08-03T15:22:32;5.22;;;3.95;;
24159;SDS011;62385;41.594;23.808;2022-08-03T15:24:58;7.55;;;4.90;;
24159;SDS011;62385;41.594;23.808;2022-08-03T15:27:24;11.30;;;9.27;;
24159;SDS011;62385;41.594;23.808;2022-08-03T15:29:49;15.18;;;11.38;;
24159;SDS011;62385;41.594;23.808;2022-08-03T15:32:16;6.65;;;4.38;;
24159;SDS011;62385;41.594;23.808;2022-08-03T15:34:42;5.90;;;4.50;;
24159;SDS011;62385;41.594;23.808;2022-08-03T15:37:07;6.25;;;4.22;;